createdAt,value
2023-05-15T00:00:19.444Z,92217.00
2023-05-15T00:01:19.502Z,92217.00
2023-05-15T00:02:19.687Z,92219.00
2023-05-15T00:03:19.706Z,92219.00
2023-05-15T00:04:19.695Z,92217.00
2023-05-15T00:05:19.721Z,92217.00
2023-05-15T00:06:19.750Z,92219.00
2023-05-15T00:07:19.798Z,92219.00
2023-05-15T00:08:19.859Z,92215.00
2023-05-15T00:09:19.896Z,92215.00
2023-05-15T00:10:19.956Z,92215.00
2023-05-15T00:11:19.984Z,92213.00
2023-05-15T00:12:20.046Z,92215.00
2023-05-15T00:13:20.079Z,92215.00
2023-05-15T00:14:20.107Z,92215.00
2023-05-15T00:15:20.142Z,92217.00
2023-05-15T00:16:20.313Z,92217.00
2023-05-15T00:17:20.249Z,92219.00
2023-05-15T00:18:20.294Z,92217.00
2023-05-15T00:19:20.846Z,92217.00
2023-05-15T00:20:20.411Z,92221.00
2023-05-15T00:21:20.448Z,92223.00
2023-05-15T00:22:20.483Z,92225.00
2023-05-15T00:23:20.504Z,92225.00
2023-05-15T00:24:20.529Z,92227.00
2023-05-15T00:25:20.608Z,92229.00
2023-05-15T00:26:20.555Z,92229.00
2023-05-15T00:27:20.626Z,92233.00
2023-05-15T00:28:20.612Z,92235.00
2023-05-15T00:29:20.648Z,92233.00
2023-05-15T00:30:20.705Z,92231.00
2023-05-15T00:31:20.799Z,92231.00
2023-05-15T00:32:20.824Z,92229.00
2023-05-15T00:33:20.865Z,92229.00
2023-05-15T00:34:20.921Z,92231.00
2023-05-15T00:35:20.980Z,92231.00
2023-05-15T00:36:21.011Z,92233.00
2023-05-15T00:37:21.063Z,92233.00
2023-05-15T00:38:21.180Z,92233.00
2023-05-15T00:39:21.207Z,92235.00
2023-05-15T00:40:21.166Z,92233.00
2023-05-15T00:41:21.189Z,92231.00
2023-05-15T00:42:21.232Z,92229.00
2023-05-15T00:43:21.289Z,92229.00
2023-05-15T00:44:21.316Z,92227.00
2023-05-15T00:45:21.371Z,92225.00
2023-05-15T00:46:21.440Z,92223.00
2023-05-15T00:47:21.447Z,92225.00
2023-05-15T00:48:21.425Z,92225.00
2023-05-15T00:49:21.449Z,92223.00
2023-05-15T00:50:21.500Z,92221.00
2023-05-15T00:51:22.017Z,92221.00
2023-05-15T00:52:21.577Z,92221.00
2023-05-15T00:53:21.729Z,92223.00
2023-05-15T00:54:21.668Z,92223.00
2023-05-15T00:55:21.669Z,92223.00
2023-05-15T00:56:21.757Z,92223.00
2023-05-15T00:57:21.725Z,92221.00
2023-05-15T00:58:21.756Z,92225.00
2023-05-15T00:59:21.776Z,92225.00
2023-05-15T01:00:21.801Z,92225.00
2023-05-15T01:01:21.908Z,92225.00
2023-05-15T01:02:21.907Z,92225.00
2023-05-15T01:03:22.007Z,92225.00
2023-05-15T01:04:21.950Z,92219.00
2023-05-15T01:05:22.024Z,92219.00
2023-05-15T01:06:22.010Z,92221.00
2023-05-15T01:07:22.045Z,92221.00
2023-05-15T01:08:22.070Z,92223.00
2023-05-15T01:09:22.094Z,92223.00
2023-05-15T01:10:22.106Z,92225.00
2023-05-15T01:11:22.138Z,92227.00
2023-05-15T01:12:22.167Z,92225.00
2023-05-15T01:13:22.200Z,92227.00
2023-05-15T01:14:22.227Z,92227.00
2023-05-15T01:15:22.319Z,92227.00
2023-05-15T01:16:22.304Z,92225.00
2023-05-15T01:17:22.259Z,92223.00
2023-05-15T01:18:22.372Z,92221.00
2023-05-15T01:19:22.490Z,92223.00
2023-05-15T01:20:22.377Z,92219.00
2023-05-15T01:21:22.429Z,92221.00
2023-05-15T01:22:22.495Z,92219.00
2023-05-15T01:23:22.509Z,92219.00
2023-05-15T01:24:22.547Z,92215.00
2023-05-15T01:25:22.913Z,92213.00
2023-05-15T01:26:22.587Z,92213.00
2023-05-15T01:27:22.621Z,92215.00
2023-05-15T01:28:22.634Z,92217.00
2023-05-15T01:29:22.669Z,92217.00
2023-05-15T01:30:22.683Z,92217.00
2023-05-15T01:31:22.679Z,92217.00
2023-05-15T01:32:22.930Z,92217.00
2023-05-15T01:33:22.714Z,92217.00
2023-05-15T01:34:22.722Z,92213.00
2023-05-15T01:35:22.755Z,92211.00
2023-05-15T01:36:22.719Z,92213.00
2023-05-15T01:37:22.725Z,92211.00
2023-05-15T01:38:22.718Z,92211.00
2023-05-15T01:39:22.710Z,92211.00
2023-05-15T01:40:22.703Z,92211.00
2023-05-15T01:41:22.711Z,92211.00
2023-05-15T01:42:22.701Z,92211.00
2023-05-15T01:43:22.718Z,92209.00
2023-05-15T01:44:22.728Z,92209.00
2023-05-15T01:45:22.997Z,92207.00
2023-05-15T01:46:22.771Z,92205.00
2023-05-15T01:47:22.769Z,92205.00
2023-05-15T01:48:22.733Z,92205.00
2023-05-15T01:49:22.753Z,92205.00
2023-05-15T01:50:22.779Z,92205.00
2023-05-15T01:51:22.742Z,92205.00
2023-05-15T01:52:22.758Z,92203.00
2023-05-15T01:53:22.823Z,92205.00
2023-05-15T01:54:22.770Z,92205.00
2023-05-15T01:55:23.171Z,92205.00
2023-05-15T01:56:22.768Z,92207.00
2023-05-15T01:57:22.765Z,92207.00
2023-05-15T01:58:22.779Z,92207.00
2023-05-15T01:59:22.775Z,92207.00
2023-05-15T02:00:22.799Z,92209.00
2023-05-15T02:01:22.825Z,92211.00
2023-05-15T02:02:22.854Z,92213.00
2023-05-15T02:03:22.892Z,92211.00
2023-05-15T02:04:22.791Z,92213.00
2023-05-15T02:05:23.016Z,92213.00
2023-05-15T02:06:22.832Z,92213.00
2023-05-15T02:07:23.528Z,92213.00
2023-05-15T02:08:22.813Z,92215.00
2023-05-15T02:09:22.800Z,92217.00
2023-05-15T02:10:22.822Z,92217.00
2023-05-15T02:11:22.831Z,92215.00
2023-05-15T02:12:22.839Z,92215.00
2023-05-15T02:13:22.825Z,92217.00
2023-05-15T02:14:22.825Z,92213.00
2023-05-15T02:15:23.326Z,92215.00
2023-05-15T02:16:22.876Z,92211.00
2023-05-15T02:17:22.838Z,92215.00
2023-05-15T02:18:22.815Z,92215.00
2023-05-15T02:19:22.830Z,92217.00
2023-05-15T02:20:22.851Z,92217.00
2023-05-15T02:21:22.860Z,92219.00
2023-05-15T02:22:23.539Z,92217.00
2023-05-15T02:23:22.821Z,92219.00
2023-05-15T02:24:22.828Z,92217.00
2023-05-15T02:25:22.975Z,92215.00
2023-05-15T02:26:22.853Z,92217.00
2023-05-15T02:27:22.843Z,92215.00
2023-05-15T02:28:22.825Z,92217.00
2023-05-15T02:29:22.832Z,92219.00
2023-05-15T02:30:22.854Z,92219.00
2023-05-15T02:31:24.365Z,92217.00
2023-05-15T02:32:22.885Z,92217.00
2023-05-15T02:33:22.835Z,92217.00
2023-05-15T02:34:22.837Z,92215.00
2023-05-15T02:35:22.961Z,92213.00
2023-05-15T02:36:22.886Z,92213.00
2023-05-15T02:37:22.882Z,92211.00
2023-05-15T02:38:22.876Z,92213.00
2023-05-15T02:39:22.874Z,92213.00
2023-05-15T02:40:22.884Z,92209.00
2023-05-15T02:41:22.908Z,92207.00
2023-05-15T02:42:22.887Z,92209.00
2023-05-15T02:43:22.898Z,92207.00
2023-05-15T02:44:22.887Z,92200.00
2023-05-15T02:45:23.150Z,92201.00
2023-05-15T02:46:23.017Z,92201.00
2023-05-15T02:47:22.878Z,92196.00
2023-05-15T02:48:22.895Z,92196.00
2023-05-15T02:49:22.893Z,92194.00
2023-05-15T02:50:22.882Z,92192.00
2023-05-15T02:51:22.892Z,92192.00
2023-05-15T02:52:22.885Z,92192.00
2023-05-15T02:53:22.934Z,92192.00
2023-05-15T02:54:22.898Z,92192.00
2023-05-15T02:55:23.021Z,92194.00
2023-05-15T02:56:22.888Z,92196.00
2023-05-15T02:57:22.878Z,92198.00
2023-05-15T02:58:22.882Z,92198.00
2023-05-15T02:59:22.882Z,92203.00
2023-05-15T03:00:22.891Z,92205.00
2023-05-15T03:01:22.890Z,92207.00
2023-05-15T03:02:22.932Z,92205.00
2023-05-15T03:03:22.884Z,92207.00
2023-05-15T03:04:22.929Z,92211.00
2023-05-15T03:05:23.212Z,92209.00
2023-05-15T03:06:22.883Z,92211.00
2023-05-15T03:07:22.880Z,92211.00
2023-05-15T03:08:22.964Z,92211.00
2023-05-15T03:09:22.881Z,92213.00
2023-05-15T03:10:22.890Z,92215.00
2023-05-15T03:11:22.898Z,92213.00
2023-05-15T03:12:22.920Z,92211.00
2023-05-15T03:13:22.907Z,92213.00
2023-05-15T03:14:22.893Z,92209.00
2023-05-15T03:15:23.083Z,92209.00
2023-05-15T03:16:22.909Z,92211.00
2023-05-15T03:17:22.899Z,92211.00
2023-05-15T03:18:22.896Z,92213.00
2023-05-15T03:19:22.934Z,92213.00
2023-05-15T03:20:22.882Z,92213.00
2023-05-15T03:21:22.883Z,92215.00
2023-05-15T03:22:22.899Z,92217.00
2023-05-15T03:23:22.879Z,92215.00
2023-05-15T03:24:22.876Z,92219.00
2023-05-15T03:25:23.034Z,92217.00
2023-05-15T03:26:22.889Z,92219.00
2023-05-15T03:27:22.895Z,92219.00
2023-05-15T03:28:22.883Z,92217.00
2023-05-15T03:29:22.892Z,92219.00
2023-05-15T03:30:22.890Z,92221.00
2023-05-15T03:31:22.903Z,92219.00
2023-05-15T03:32:22.914Z,92221.00
2023-05-15T03:33:22.895Z,92223.00
2023-05-15T03:34:22.948Z,92223.00
2023-05-15T03:35:23.107Z,92225.00
2023-05-15T03:36:22.912Z,92223.00
2023-05-15T03:37:22.918Z,92225.00
2023-05-15T03:38:22.933Z,92219.00
2023-05-15T03:39:22.924Z,92223.00
2023-05-15T03:40:22.955Z,92217.00
2023-05-15T03:41:22.975Z,92217.00
2023-05-15T03:42:22.995Z,92215.00
2023-05-15T03:43:22.971Z,92217.00
2023-05-15T03:44:22.981Z,92219.00
2023-05-15T03:45:23.369Z,92221.00
2023-05-15T03:46:23.048Z,92223.00
2023-05-15T03:47:23.617Z,92223.00
2023-05-15T03:48:23.000Z,92225.00
2023-05-15T03:49:23.001Z,92229.00
2023-05-15T03:50:23.008Z,92233.00
2023-05-15T03:51:23.019Z,92235.00
2023-05-15T03:52:23.044Z,92235.00
2023-05-15T03:53:23.046Z,92237.00
2023-05-15T03:54:23.053Z,92233.00
2023-05-15T03:55:23.202Z,92237.00
2023-05-15T03:56:23.059Z,92239.00
2023-05-15T03:57:23.050Z,92241.00
2023-05-15T03:58:23.055Z,92243.00
2023-05-15T03:59:23.056Z,92245.00
2023-05-15T04:00:23.170Z,92245.00
2023-05-15T04:01:23.056Z,92247.00
2023-05-15T04:02:23.104Z,92248.00
2023-05-15T04:03:23.092Z,92248.00
2023-05-15T04:04:23.088Z,92248.00
2023-05-15T04:05:23.269Z,92250.00
2023-05-15T04:06:23.081Z,92248.00
2023-05-15T04:07:23.085Z,92248.00
2023-05-15T04:08:23.080Z,92250.00
2023-05-15T04:09:23.101Z,92250.00
2023-05-15T04:10:23.245Z,92248.00
2023-05-15T04:11:23.100Z,92252.00
2023-05-15T04:12:23.096Z,92254.00
2023-05-15T04:13:23.097Z,92252.00
2023-05-15T04:14:23.116Z,92254.00
2023-05-15T04:15:23.266Z,92256.00
2023-05-15T04:16:23.167Z,92254.00
2023-05-15T04:17:23.185Z,92254.00
2023-05-15T04:18:23.134Z,92256.00
2023-05-15T04:19:23.157Z,92258.00
2023-05-15T04:20:23.159Z,92256.00
2023-05-15T04:21:23.594Z,92256.00
2023-05-15T04:22:24.084Z,92254.00
2023-05-15T04:23:23.151Z,92252.00
2023-05-15T04:24:23.158Z,92252.00
2023-05-15T04:25:23.365Z,92252.00
2023-05-15T04:26:23.245Z,92256.00
2023-05-15T04:27:23.155Z,92258.00
2023-05-15T04:28:23.225Z,92258.00
2023-05-15T04:29:23.170Z,92260.00
2023-05-15T04:30:23.180Z,92262.00
2023-05-15T04:31:23.173Z,92262.00
2023-05-15T04:32:23.217Z,92260.00
2023-05-15T04:33:23.215Z,92260.00
2023-05-15T04:34:23.160Z,92262.00
2023-05-15T04:35:23.295Z,92262.00
2023-05-15T04:36:23.156Z,92258.00
2023-05-15T04:37:23.144Z,92260.00
2023-05-15T04:38:23.130Z,92260.00
2023-05-15T04:39:23.123Z,92260.00
2023-05-15T04:40:23.119Z,92260.00
2023-05-15T04:41:23.108Z,92264.00
2023-05-15T04:42:23.108Z,92264.00
2023-05-15T04:43:23.096Z,92262.00
2023-05-15T04:44:23.092Z,92264.00
2023-05-15T04:45:23.292Z,92266.00
2023-05-15T04:46:23.119Z,92264.00
2023-05-15T04:47:23.087Z,92260.00
2023-05-15T04:48:23.081Z,92260.00
2023-05-15T04:49:23.055Z,92258.00
2023-05-15T04:50:23.243Z,92260.00
2023-05-15T04:51:23.051Z,92260.00
2023-05-15T04:52:23.039Z,92260.00
2023-05-15T04:53:23.032Z,92254.00
2023-05-15T04:54:23.036Z,92258.00
2023-05-15T04:55:23.108Z,92256.00
2023-05-15T04:56:23.042Z,92256.00
2023-05-15T04:57:23.056Z,92256.00
2023-05-15T04:58:23.045Z,92254.00
2023-05-15T04:59:23.070Z,92254.00
2023-05-15T05:00:23.098Z,92258.00
2023-05-15T05:01:23.112Z,92260.00
2023-05-15T05:02:23.124Z,92260.00
2023-05-15T05:03:23.110Z,92258.00
2023-05-15T05:04:23.074Z,92260.00
2023-05-15T05:05:23.245Z,92258.00
2023-05-15T05:06:23.091Z,92258.00
2023-05-15T05:07:23.098Z,92256.00
2023-05-15T05:08:23.077Z,92256.00
2023-05-15T05:09:23.087Z,92254.00
2023-05-15T05:10:23.075Z,92252.00
2023-05-15T05:11:23.076Z,92256.00
2023-05-15T05:12:23.064Z,92250.00
2023-05-15T05:13:23.087Z,92250.00
2023-05-15T05:14:23.080Z,92247.00
2023-05-15T05:15:23.312Z,92247.00
2023-05-15T05:16:23.201Z,92252.00
2023-05-15T05:17:23.174Z,92250.00
2023-05-15T05:18:23.124Z,92250.00
2023-05-15T05:19:23.153Z,92248.00
2023-05-15T05:20:23.176Z,92245.00
2023-05-15T05:21:23.201Z,92243.00
2023-05-15T05:22:23.229Z,92248.00
2023-05-15T05:23:23.259Z,92245.00
2023-05-15T05:24:23.286Z,92247.00
2023-05-15T05:25:23.398Z,92243.00
2023-05-15T05:26:23.343Z,92245.00
2023-05-15T05:27:23.398Z,92247.00
2023-05-15T05:28:23.431Z,92243.00
2023-05-15T05:29:23.501Z,92243.00
2023-05-15T05:30:23.544Z,92247.00
2023-05-15T05:31:23.665Z,92247.00
2023-05-15T05:32:23.680Z,92248.00
2023-05-15T05:33:23.709Z,92247.00
2023-05-15T05:34:23.732Z,92250.00
2023-05-15T05:35:23.913Z,92250.00
2023-05-15T05:36:23.789Z,92250.00
2023-05-15T05:37:23.819Z,92256.00
2023-05-15T05:38:24.608Z,92254.00
2023-05-15T05:39:23.833Z,92252.00
2023-05-15T05:40:23.839Z,92256.00
2023-05-15T05:41:24.540Z,92254.00
2023-05-15T05:42:23.857Z,92254.00
2023-05-15T05:43:23.875Z,92250.00
2023-05-15T05:44:23.914Z,92252.00
2023-05-15T05:45:24.083Z,92250.00
2023-05-15T05:46:24.031Z,92252.00
2023-05-15T05:47:24.112Z,92252.00
2023-05-15T05:48:24.167Z,92254.00
2023-05-15T05:49:24.228Z,92250.00
2023-05-15T05:50:24.275Z,92252.00
2023-05-15T05:51:24.304Z,92250.00
2023-05-15T05:52:24.380Z,92250.00
2023-05-15T05:53:24.421Z,92250.00
2023-05-15T05:54:24.461Z,92250.00
2023-05-15T05:55:24.733Z,92254.00
2023-05-15T05:56:24.546Z,92250.00
2023-05-15T05:57:24.593Z,92252.00
2023-05-15T05:58:26.309Z,92252.00
2023-05-15T05:59:24.731Z,92256.00
2023-05-15T06:00:24.703Z,92258.00
2023-05-15T06:01:24.739Z,92254.00
2023-05-15T06:02:25.174Z,92256.00
2023-05-15T06:03:24.877Z,92256.00
2023-05-15T06:04:24.877Z,92264.00
2023-05-15T06:05:25.033Z,92262.00
2023-05-15T06:06:24.939Z,92266.00
2023-05-15T06:07:25.127Z,92270.00
2023-05-15T06:08:24.919Z,92268.00
2023-05-15T06:09:24.932Z,92270.00
2023-05-15T06:10:25.290Z,92270.00
2023-05-15T06:11:25.669Z,92272.00
2023-05-15T06:12:25.008Z,92272.00
2023-05-15T06:13:25.026Z,92274.00
2023-05-15T06:14:25.026Z,92276.00
2023-05-15T06:15:25.228Z,92276.00
2023-05-15T06:16:25.081Z,92276.00
2023-05-15T06:17:25.076Z,92278.00
2023-05-15T06:18:25.056Z,92280.00
2023-05-15T06:19:25.097Z,92278.00
2023-05-15T06:20:25.265Z,92276.00
2023-05-15T06:21:25.096Z,92276.00
2023-05-15T06:22:25.124Z,92276.00
2023-05-15T06:23:25.124Z,92274.00
2023-05-15T06:24:25.144Z,92272.00
2023-05-15T06:25:25.178Z,92270.00
2023-05-15T06:26:25.216Z,92270.00
2023-05-15T06:27:25.274Z,92270.00
2023-05-15T06:28:25.358Z,92270.00
2023-05-15T06:29:25.387Z,92270.00
2023-05-15T06:30:25.714Z,92264.00
2023-05-15T06:31:25.556Z,92264.00
2023-05-15T06:32:25.506Z,92264.00
2023-05-15T06:33:25.613Z,92264.00
2023-05-15T06:34:25.530Z,92266.00
2023-05-15T06:35:25.542Z,92264.00
2023-05-15T06:36:25.532Z,92264.00
2023-05-15T06:37:25.532Z,92262.00
2023-05-15T06:38:25.535Z,92264.00
2023-05-15T06:39:25.527Z,92264.00
2023-05-15T06:40:25.704Z,92270.00
2023-05-15T06:41:25.605Z,92268.00
2023-05-15T06:42:25.659Z,92266.00
2023-05-15T06:43:25.702Z,92266.00
2023-05-15T06:44:25.881Z,92266.00
2023-05-15T06:45:26.090Z,92264.00
2023-05-15T06:46:25.969Z,92262.00
2023-05-15T06:47:26.299Z,92262.00
2023-05-15T06:48:26.005Z,92262.00
2023-05-15T06:49:26.079Z,92260.00
2023-05-15T06:50:26.095Z,92262.00
2023-05-15T06:51:26.234Z,92258.00
2023-05-15T06:52:26.223Z,92260.00
2023-05-15T06:53:26.279Z,92256.00
2023-05-15T06:54:26.284Z,92256.00
2023-05-15T06:55:26.562Z,92256.00
2023-05-15T06:56:26.280Z,92264.00
2023-05-15T06:57:26.283Z,92260.00
2023-05-15T06:58:27.146Z,92260.00
2023-05-15T06:59:26.276Z,92260.00
2023-05-15T07:00:26.279Z,92256.00
2023-05-15T07:01:26.326Z,92256.00
2023-05-15T07:02:26.349Z,92258.00
2023-05-15T07:03:26.580Z,92256.00
2023-05-15T07:04:26.338Z,92256.00
2023-05-15T07:05:26.501Z,92260.00
2023-05-15T07:06:26.363Z,92258.00
2023-05-15T07:07:26.402Z,92260.00
2023-05-15T07:08:26.408Z,92260.00
2023-05-15T07:09:26.434Z,92260.00
2023-05-15T07:10:26.837Z,92256.00
2023-05-15T07:11:26.489Z,92254.00
2023-05-15T07:12:26.518Z,92258.00
2023-05-15T07:13:26.547Z,92256.00
2023-05-15T07:14:26.565Z,92256.00
2023-05-15T07:15:27.160Z,92262.00
2023-05-15T07:16:26.630Z,92266.00
2023-05-15T07:17:27.221Z,92266.00
2023-05-15T07:18:26.741Z,92262.00
2023-05-15T07:19:26.910Z,92264.00
2023-05-15T07:20:30.275Z,92264.00
2023-05-15T07:21:27.806Z,92262.00
2023-05-15T07:22:26.830Z,92262.00
2023-05-15T07:23:26.878Z,92260.00
2023-05-15T07:24:26.863Z,92258.00
2023-05-15T07:25:26.864Z,92260.00
2023-05-15T07:26:36.349Z,92258.00
2023-05-15T07:27:27.775Z,92258.00
2023-05-15T07:28:26.758Z,92256.00
2023-05-15T07:29:26.767Z,92254.00
2023-05-15T07:30:27.006Z,92254.00
2023-05-15T07:31:26.769Z,92252.00
2023-05-15T07:32:26.771Z,92252.00
2023-05-15T07:33:27.658Z,92248.00
2023-05-15T07:34:26.722Z,92250.00
2023-05-15T07:35:26.947Z,92252.00
2023-05-15T07:36:26.711Z,92248.00
2023-05-15T07:37:27.162Z,92247.00
2023-05-15T07:38:26.719Z,92243.00
2023-05-15T07:39:26.724Z,92243.00
2023-05-15T07:40:26.712Z,92243.00
2023-05-15T07:41:26.746Z,92239.00
2023-05-15T07:42:26.783Z,92237.00
2023-05-15T07:43:26.889Z,92239.00
2023-05-15T07:44:26.893Z,92237.00
2023-05-15T07:45:27.164Z,92231.00
2023-05-15T07:46:27.070Z,92229.00
2023-05-15T07:47:27.087Z,92227.00
2023-05-15T07:48:27.122Z,92223.00
2023-05-15T07:49:27.172Z,92225.00
2023-05-15T07:50:27.218Z,92229.00
2023-05-15T07:51:27.281Z,92229.00
2023-05-15T07:52:27.307Z,92227.00
2023-05-15T07:53:27.353Z,92229.00
2023-05-15T07:54:27.388Z,92227.00
2023-05-15T07:55:27.603Z,92235.00
2023-05-15T07:56:27.528Z,92237.00
2023-05-15T07:57:27.512Z,92237.00
2023-05-15T07:58:27.554Z,92243.00
2023-05-15T07:59:27.651Z,92245.00
2023-05-15T08:00:27.650Z,92247.00
2023-05-15T08:01:28.667Z,92248.00
2023-05-15T08:02:27.839Z,92245.00
2023-05-15T08:03:27.879Z,92248.00
2023-05-15T08:04:27.920Z,92248.00
2023-05-15T08:05:28.018Z,92248.00
2023-05-15T08:06:27.908Z,92250.00
2023-05-15T08:07:28.025Z,92250.00
2023-05-15T08:08:28.591Z,92250.00
2023-05-15T08:09:28.121Z,92250.00
2023-05-15T08:10:28.142Z,92254.00
2023-05-15T08:11:28.205Z,92254.00
2023-05-15T08:12:28.251Z,92256.00
2023-05-15T08:13:28.309Z,92254.00
2023-05-15T08:14:28.373Z,92256.00
2023-05-15T08:15:28.441Z,92258.00
2023-05-15T08:16:28.546Z,92252.00
2023-05-15T08:17:30.604Z,92252.00
2023-05-15T08:18:28.427Z,92254.00
2023-05-15T08:19:28.395Z,92258.00
2023-05-15T08:20:28.530Z,92254.00
2023-05-15T08:21:28.374Z,92254.00
2023-05-15T08:22:28.362Z,92258.00
2023-05-15T08:23:28.430Z,92256.00
2023-05-15T08:24:29.095Z,92258.00
2023-05-15T08:25:28.429Z,92258.00
2023-05-15T08:26:28.456Z,92256.00
2023-05-15T08:27:28.474Z,92260.00
2023-05-15T08:28:28.545Z,92256.00
2023-05-15T08:29:28.539Z,92256.00
2023-05-15T08:30:28.574Z,92252.00
2023-05-15T08:31:28.646Z,92258.00
2023-05-15T08:32:29.722Z,92254.00
2023-05-15T08:33:29.596Z,92254.00
2023-05-15T08:34:28.874Z,92254.00
2023-05-15T08:35:28.855Z,92254.00
2023-05-15T08:36:31.123Z,92254.00
2023-05-15T08:37:29.686Z,92256.00
2023-05-15T08:38:29.683Z,92252.00
2023-05-15T08:39:29.916Z,92254.00
2023-05-15T08:41:39.415Z,92254.00
2023-05-15T08:42:29.821Z,92252.00
2023-05-15T08:43:28.802Z,92252.00
2023-05-15T08:44:28.824Z,92250.00
2023-05-15T08:45:28.805Z,92247.00
2023-05-15T08:46:28.864Z,92248.00
2023-05-15T08:47:28.880Z,92247.00
2023-05-15T08:48:28.834Z,92248.00
2023-05-15T08:49:28.763Z,92248.00
2023-05-15T08:50:28.758Z,92248.00
2023-05-15T08:51:29.692Z,92247.00
2023-05-15T08:52:28.750Z,92247.00
2023-05-15T08:53:28.740Z,92245.00
2023-05-15T08:54:29.690Z,92245.00
2023-05-15T08:55:29.692Z,92247.00
2023-05-15T08:56:28.762Z,92248.00
2023-05-15T08:57:29.700Z,92247.00
2023-05-15T08:58:28.794Z,92248.00
2023-05-15T08:59:28.843Z,92245.00
2023-05-15T09:00:28.867Z,92247.00
2023-05-15T09:01:28.979Z,92247.00
2023-05-15T09:02:28.983Z,92243.00
2023-05-15T09:03:29.814Z,92243.00
2023-05-15T09:04:29.700Z,92243.00
2023-05-15T09:05:29.719Z,92245.00
2023-05-15T09:06:29.221Z,92245.00
2023-05-15T09:07:29.158Z,92245.00
2023-05-15T09:08:29.111Z,92245.00
2023-05-15T09:09:29.178Z,92245.00
2023-05-15T09:10:29.143Z,92243.00
2023-05-15T09:11:29.154Z,92245.00
2023-05-15T09:12:29.757Z,92245.00
2023-05-15T09:13:29.189Z,92245.00
2023-05-15T09:14:29.188Z,92243.00
2023-05-15T09:15:29.239Z,92243.00
2023-05-15T09:16:29.282Z,92241.00
2023-05-15T09:17:29.275Z,92245.00
2023-05-15T09:18:29.312Z,92245.00
2023-05-15T09:19:29.282Z,92245.00
2023-05-15T09:20:29.318Z,92245.00
2023-05-15T09:21:29.430Z,92245.00
2023-05-15T09:22:32.258Z,92245.00
2023-05-15T09:23:29.320Z,92241.00
2023-05-15T09:24:30.368Z,92243.00
2023-05-15T09:25:29.304Z,92243.00
2023-05-15T09:26:29.304Z,92243.00
2023-05-15T09:27:30.247Z,92241.00
2023-05-15T09:28:29.338Z,92241.00
2023-05-15T09:29:29.287Z,92241.00
2023-05-15T09:30:29.272Z,92243.00
2023-05-15T09:31:30.141Z,92241.00
2023-05-15T09:32:30.171Z,92241.00
2023-05-15T09:33:29.249Z,92237.00
2023-05-15T09:34:30.210Z,92239.00
2023-05-15T09:35:29.392Z,92239.00
2023-05-15T09:36:29.235Z,92237.00
2023-05-15T09:37:29.226Z,92237.00
2023-05-15T09:38:29.216Z,92233.00
2023-05-15T09:39:30.208Z,92235.00
2023-05-15T09:40:29.707Z,92235.00
2023-05-15T09:41:29.293Z,92233.00
2023-05-15T09:42:29.181Z,92237.00
2023-05-15T09:43:29.184Z,92233.00
2023-05-15T09:44:30.138Z,92233.00
2023-05-15T09:45:29.169Z,92231.00
2023-05-15T09:46:29.237Z,92231.00
2023-05-15T09:47:29.343Z,92231.00
2023-05-15T09:48:29.234Z,92229.00
2023-05-15T09:49:29.902Z,92231.00
2023-05-15T09:50:29.153Z,92231.00
2023-05-15T09:51:29.117Z,92229.00
2023-05-15T09:52:29.138Z,92231.00
2023-05-15T09:53:29.099Z,92231.00
2023-05-15T09:54:29.100Z,92229.00
2023-05-15T09:55:29.145Z,92231.00
2023-05-15T09:56:29.176Z,92229.00
2023-05-15T09:57:29.227Z,92227.00
2023-05-15T09:58:29.263Z,92227.00
2023-05-15T09:59:29.309Z,92229.00
2023-05-15T10:00:31.993Z,92225.00
2023-05-15T10:01:29.367Z,92225.00
2023-05-15T10:02:30.250Z,92225.00
2023-05-15T10:03:29.326Z,92225.00
2023-05-15T10:04:29.318Z,92225.00
2023-05-15T10:05:42.494Z,92225.00
2023-05-15T10:06:30.316Z,92223.00
2023-05-15T10:07:29.311Z,92221.00
2023-05-15T10:08:29.310Z,92223.00
2023-05-15T10:09:29.271Z,92221.00
2023-05-15T10:10:29.273Z,92223.00
2023-05-15T10:11:29.269Z,92221.00
2023-05-15T10:12:29.260Z,92219.00
2023-05-15T10:13:29.256Z,92219.00
2023-05-15T10:14:29.270Z,92217.00
2023-05-15T10:15:29.308Z,92215.00
2023-05-15T10:16:29.269Z,92211.00
2023-05-15T10:17:29.269Z,92211.00
2023-05-15T10:18:29.258Z,92205.00
2023-05-15T10:19:29.208Z,92209.00
2023-05-15T10:20:29.201Z,92205.00
2023-05-15T10:21:29.204Z,92201.00
2023-05-15T10:22:29.390Z,92198.00
2023-05-15T10:23:29.193Z,92196.00
2023-05-15T10:24:29.206Z,92196.00
2023-05-15T10:25:29.252Z,92192.00
2023-05-15T10:26:29.299Z,92192.00
2023-05-15T10:27:29.326Z,92188.00
2023-05-15T10:28:29.357Z,92186.00
2023-05-15T10:29:29.379Z,92186.00
2023-05-15T10:30:29.403Z,92188.00
2023-05-15T10:31:29.583Z,92186.00
2023-05-15T10:32:29.530Z,92184.00
2023-05-15T10:33:29.566Z,92182.00
2023-05-15T10:34:29.527Z,92180.00
2023-05-15T10:35:29.545Z,92182.00
2023-05-15T10:36:29.577Z,92182.00
2023-05-15T10:37:29.592Z,92182.00
2023-05-15T10:38:29.622Z,92178.00
2023-05-15T10:39:29.648Z,92178.00
2023-05-15T10:40:29.668Z,92176.00
2023-05-15T10:41:29.720Z,92176.00
2023-05-15T10:42:29.786Z,92174.00
2023-05-15T10:43:29.759Z,92174.00
2023-05-15T10:44:30.653Z,92174.00
2023-05-15T10:45:29.808Z,92178.00
2023-05-15T10:46:29.859Z,92178.00
2023-05-15T10:47:29.989Z,92180.00
2023-05-15T10:48:29.917Z,92176.00
2023-05-15T10:49:29.938Z,92180.00
2023-05-15T10:50:29.973Z,92178.00
2023-05-15T10:51:30.013Z,92178.00
2023-05-15T10:52:29.999Z,92180.00
2023-05-15T10:53:30.030Z,92178.00
2023-05-15T10:54:30.026Z,92182.00
2023-05-15T10:55:30.049Z,92182.00
2023-05-15T10:56:30.160Z,92182.00
2023-05-15T10:57:30.089Z,92186.00
2023-05-15T10:58:30.088Z,92182.00
2023-05-15T10:59:30.104Z,92182.00
2023-05-15T11:00:30.109Z,92186.00
2023-05-15T11:01:30.159Z,92186.00
2023-05-15T11:02:30.164Z,92190.00
2023-05-15T11:03:37.760Z,92190.00
2023-05-15T11:04:31.170Z,92190.00
2023-05-15T11:05:30.130Z,92188.00
2023-05-15T11:06:30.126Z,92188.00
2023-05-15T11:07:30.112Z,92190.00
2023-05-15T11:08:30.105Z,92188.00
2023-05-15T11:09:30.098Z,92188.00
2023-05-15T11:10:30.083Z,92188.00
2023-05-15T11:11:30.083Z,92188.00
2023-05-15T11:12:30.070Z,92186.00
2023-05-15T11:13:30.071Z,92188.00
2023-05-15T11:14:30.051Z,92186.00
2023-05-15T11:15:30.048Z,92190.00
2023-05-15T11:16:30.070Z,92188.00
2023-05-15T11:17:30.048Z,92186.00
2023-05-15T11:18:30.082Z,92186.00
2023-05-15T11:19:30.026Z,92188.00
2023-05-15T11:20:30.016Z,92184.00
2023-05-15T11:21:30.005Z,92188.00
2023-05-15T11:22:30.005Z,92186.00
2023-05-15T11:23:29.999Z,92182.00
2023-05-15T11:24:29.995Z,92184.00
2023-05-15T11:25:30.048Z,92186.00
2023-05-15T11:26:30.023Z,92184.00
2023-05-15T11:27:30.049Z,92182.00
2023-05-15T11:28:31.482Z,92182.00
2023-05-15T11:29:30.124Z,92184.00
2023-05-15T11:30:30.146Z,92184.00
2023-05-15T11:31:30.312Z,92186.00
2023-05-15T11:32:30.255Z,92186.00
2023-05-15T11:33:30.253Z,92182.00
2023-05-15T11:34:30.271Z,92178.00
2023-05-15T11:35:30.347Z,92180.00
2023-05-15T11:36:30.326Z,92178.00
2023-05-15T11:37:30.354Z,92178.00
2023-05-15T11:38:30.405Z,92176.00
2023-05-15T11:39:30.416Z,92170.00
2023-05-15T11:40:30.451Z,92172.00
2023-05-15T11:41:30.485Z,92168.00
2023-05-15T11:42:30.521Z,92170.00
2023-05-15T11:43:30.558Z,92168.00
2023-05-15T11:44:30.589Z,92168.00
2023-05-15T11:45:30.629Z,92168.00